createdAt,value
2023-04-26T00:01:27.678Z,0.80
2023-04-26T00:03:57.761Z,0.95
2023-04-26T00:06:27.579Z,0.88
2023-04-26T00:08:56.975Z,0.80
2023-04-26T00:11:26.270Z,0.77
2023-04-26T00:13:55.566Z,0.90
2023-04-26T00:16:26.382Z,0.70
2023-04-26T00:18:56.774Z,0.75
2023-04-26T00:21:26.155Z,0.60
2023-04-26T00:23:55.296Z,0.73
2023-04-26T00:26:24.875Z,0.70
2023-04-26T00:28:54.597Z,0.68
2023-04-26T00:31:25.650Z,0.80
2023-04-26T00:33:54.981Z,0.77
2023-04-26T00:36:24.178Z,0.82
2023-04-26T00:38:53.533Z,0.70
2023-04-26T00:41:23.000Z,0.60
2023-04-26T00:43:52.360Z,0.80
2023-04-26T00:46:22.901Z,0.60
2023-04-26T00:48:54.017Z,0.80
2023-04-26T00:51:23.594Z,0.70
2023-04-26T00:53:52.880Z,0.88
2023-04-26T00:56:24.454Z,0.70
2023-04-26T00:58:54.029Z,0.77
2023-04-26T01:01:23.679Z,0.60
2023-04-26T01:03:54.597Z,0.60
2023-04-26T01:06:24.182Z,0.70
2023-04-26T01:08:55.025Z,0.88
2023-04-26T01:11:24.902Z,0.70
2023-04-26T01:13:55.118Z,0.80
2023-04-26T01:16:25.428Z,0.85
2023-04-26T01:18:57.271Z,0.77
2023-04-26T01:21:26.501Z,0.70
2023-04-26T01:23:59.135Z,0.82
2023-04-26T01:26:28.473Z,0.85
2023-04-26T01:28:57.593Z,0.85
2023-04-26T01:31:26.998Z,0.75
2023-04-26T01:33:56.268Z,0.70
2023-04-26T01:36:25.552Z,0.90
2023-04-26T01:38:54.768Z,0.88
2023-04-26T01:41:25.888Z,0.80
2023-04-26T01:43:55.672Z,0.77
2023-04-26T01:46:24.932Z,0.80
2023-04-26T01:48:54.469Z,0.70
2023-04-26T01:51:25.379Z,0.73
2023-04-26T01:53:54.720Z,0.85
2023-04-26T01:56:27.216Z,0.70
2023-04-26T01:58:57.628Z,0.70
2023-04-26T02:01:27.152Z,0.60
2023-04-26T02:03:56.326Z,0.70
2023-04-26T02:06:25.614Z,0.70
2023-04-26T02:08:55.390Z,0.80
2023-04-26T02:11:27.143Z,0.43
2023-04-26T02:13:56.590Z,0.70
2023-04-26T02:16:25.821Z,0.70
2023-04-26T02:18:55.309Z,0.85
2023-04-26T02:21:24.623Z,0.88
2023-04-26T02:23:54.711Z,0.73
2023-04-26T02:26:23.920Z,0.70
2023-04-26T02:28:54.745Z,1.10
2023-04-26T02:31:24.130Z,0.85
2023-04-26T02:33:53.351Z,0.88
2023-04-26T02:36:22.516Z,0.68
2023-04-26T02:38:52.565Z,0.75
2023-04-26T02:41:22.180Z,0.70
2023-04-26T02:43:51.777Z,0.70
2023-04-26T02:46:22.526Z,0.73
2023-04-26T02:48:52.147Z,0.90
2023-04-26T02:51:21.857Z,0.70
2023-04-26T02:53:51.074Z,0.90
2023-04-26T02:56:20.905Z,0.80
2023-04-26T02:58:50.388Z,0.90
2023-04-26T03:01:21.392Z,0.88
2023-04-26T03:03:50.863Z,0.63
2023-04-26T03:06:20.109Z,0.80
2023-04-26T03:08:49.332Z,0.75
2023-04-26T03:11:18.815Z,0.73
2023-04-26T03:13:48.067Z,0.70
2023-04-26T03:16:17.702Z,0.70
2023-04-26T03:18:48.647Z,0.90
2023-04-26T03:21:18.311Z,0.80
2023-04-26T03:23:47.619Z,0.77
2023-04-26T03:26:17.363Z,0.77
2023-04-26T03:28:46.627Z,0.75
2023-04-26T03:31:15.833Z,0.85
2023-04-26T03:33:45.121Z,0.68
2023-04-26T03:36:15.787Z,0.80
2023-04-26T03:38:45.261Z,0.57
2023-04-26T03:41:15.771Z,0.70
2023-04-26T03:43:44.959Z,0.77
2023-04-26T03:46:14.249Z,0.88
2023-04-26T03:48:43.413Z,0.60
2023-04-26T03:51:12.775Z,0.85
2023-04-26T03:53:43.507Z,0.70
2023-04-26T03:56:12.787Z,0.73
2023-04-26T03:58:42.313Z,0.80
2023-04-26T04:01:11.634Z,0.68
2023-04-26T04:03:41.700Z,0.65
2023-04-26T04:06:12.712Z,0.85
2023-04-26T04:08:43.301Z,0.80
2023-04-26T04:11:13.058Z,0.80
2023-04-26T04:13:43.363Z,0.80
2023-04-26T04:16:12.978Z,0.80
2023-04-26T04:18:43.198Z,0.80
2023-04-26T04:21:12.565Z,0.77
2023-04-26T04:23:43.746Z,0.98
2023-04-26T04:26:14.408Z,0.82
2023-04-26T04:28:45.353Z,0.68
2023-04-26T04:31:15.360Z,0.77
2023-04-26T04:33:44.623Z,0.90
2023-04-26T04:36:16.979Z,0.90
2023-04-26T04:38:49.019Z,0.90
2023-04-26T04:41:22.656Z,0.90
2023-04-26T04:43:53.775Z,0.68
2023-04-26T04:46:23.375Z,0.90
2023-04-26T04:48:53.817Z,0.80
2023-04-26T04:51:23.577Z,1.10
2023-04-26T04:53:54.363Z,1.45
2023-04-26T04:56:23.876Z,1.10
2023-04-26T04:58:53.768Z,1.08
2023-04-26T05:01:24.442Z,1.20
2023-04-26T05:03:57.835Z,1.30
2023-04-26T05:06:28.457Z,1.10
2023-04-26T05:08:59.630Z,1.10
2023-04-26T05:11:29.359Z,1.23
2023-04-26T05:13:59.066Z,2.08
2023-04-26T05:16:28.635Z,1.30
2023-04-26T05:18:57.962Z,1.13
2023-04-26T05:21:27.315Z,1.45
2023-04-26T05:23:56.896Z,1.30
2023-04-26T05:26:27.605Z,1.10
2023-04-26T05:29:15.156Z,1.40
2023-04-26T05:32:13.638Z,1.30
2023-04-26T05:34:43.263Z,1.65
2023-04-26T05:37:17.485Z,1.30
2023-04-26T05:39:46.796Z,1.15
2023-04-26T05:42:18.137Z,1.20
2023-04-26T05:44:47.969Z,1.30
2023-04-26T05:47:17.772Z,1.30
2023-04-26T05:49:46.976Z,1.40
2023-04-26T05:52:16.289Z,1.10
2023-04-26T05:54:45.607Z,1.00
2023-04-26T05:57:16.405Z,1.40
2023-04-26T05:59:46.663Z,1.05
2023-04-26T06:02:16.104Z,1.10
2023-04-26T06:04:45.445Z,1.02
2023-04-26T06:07:18.536Z,1.00
2023-04-26T06:09:49.583Z,1.30
2023-04-26T06:12:22.624Z,1.30
2023-04-26T06:14:53.356Z,1.20
2023-04-26T06:17:28.631Z,1.20
2023-04-26T06:19:58.218Z,1.02
2023-04-26T06:22:27.503Z,1.15
2023-04-26T06:24:56.724Z,1.27
2023-04-26T06:27:27.444Z,1.30
2023-04-26T06:29:57.256Z,1.25
2023-04-26T06:32:28.845Z,1.23
2023-04-26T06:34:58.176Z,1.30
2023-04-26T06:37:27.901Z,1.20
2023-04-26T06:39:57.236Z,1.02
2023-04-26T06:42:28.074Z,1.02
2023-04-26T06:45:13.275Z,1.10
2023-04-26T06:47:42.736Z,1.10
2023-04-26T06:50:12.928Z,1.20
2023-04-26T06:52:42.334Z,1.27
2023-04-26T06:55:12.172Z,0.98
2023-04-26T06:57:43.223Z,1.10
2023-04-26T07:00:13.929Z,1.08
2023-04-26T07:02:43.467Z,1.20
2023-04-26T07:05:13.000Z,1.10
2023-04-26T07:07:42.363Z,0.82
2023-04-26T07:10:11.919Z,1.20
2023-04-26T07:12:43.068Z,1.10
2023-04-26T07:15:12.931Z,1.00
2023-04-26T07:17:42.233Z,1.00
2023-04-26T07:20:12.367Z,1.00
2023-04-26T07:22:41.701Z,1.02
2023-04-26T07:25:11.332Z,1.30
2023-04-26T07:27:40.640Z,1.13
2023-04-26T07:30:12.574Z,1.17
2023-04-26T07:32:41.923Z,1.10
2023-04-26T07:35:16.502Z,1.05
2023-04-26T07:37:46.266Z,1.23
2023-04-26T07:40:15.983Z,1.10
2023-04-26T07:42:45.320Z,1.10
2023-04-26T07:45:16.315Z,1.08
2023-04-26T07:47:45.866Z,1.10
2023-04-26T07:50:15.389Z,1.30
2023-04-26T07:52:44.729Z,1.10
2023-04-26T07:55:15.350Z,1.10
2023-04-26T07:57:45.651Z,1.48
2023-04-26T08:00:17.918Z,1.70
2023-04-26T08:02:47.481Z,2.00
2023-04-26T08:05:17.422Z,1.67
2023-04-26T08:07:47.078Z,1.73
2023-04-26T08:10:16.489Z,1.85
2023-04-26T08:12:45.988Z,1.85
2023-04-26T08:15:16.675Z,1.80
2023-04-26T08:17:47.376Z,2.10
2023-04-26T08:20:16.874Z,2.13
2023-04-26T08:22:46.220Z,2.42
2023-04-26T08:25:16.295Z,2.53
2023-04-26T08:27:46.059Z,2.63
2023-04-26T08:30:17.031Z,2.72
2023-04-26T08:32:46.935Z,3.10
2023-04-26T08:35:16.338Z,3.00
2023-04-26T08:37:45.629Z,3.33
2023-04-26T08:40:15.004Z,3.35
2023-04-26T08:42:45.281Z,2.75
2023-04-26T08:45:17.636Z,3.20
2023-04-26T08:47:50.023Z,3.15
2023-04-26T08:50:22.364Z,3.55
2023-04-26T08:52:53.259Z,3.10
2023-04-26T08:55:22.686Z,3.00
2023-04-26T08:57:52.636Z,3.63
2023-04-26T09:00:23.858Z,3.75
2023-04-26T09:02:54.874Z,3.53
2023-04-26T09:05:26.849Z,3.35
2023-04-26T09:08:02.307Z,3.63
2023-04-26T09:10:32.595Z,3.50
2023-04-26T09:13:02.147Z,3.75
2023-04-26T09:15:33.023Z,3.70
2023-04-26T09:18:20.726Z,3.55
2023-04-26T09:21:04.698Z,3.40
2023-04-26T09:23:34.477Z,3.38
2023-04-26T09:26:20.727Z,3.25
2023-04-26T09:28:50.850Z,3.50
2023-04-26T09:31:39.176Z,3.40
2023-04-26T09:34:09.261Z,3.38
2023-04-26T09:36:52.501Z,3.20
2023-04-26T09:39:35.833Z,3.20
2023-04-26T09:42:06.173Z,3.20
2023-04-26T09:44:35.485Z,3.08
2023-04-26T09:47:09.733Z,2.90
2023-04-26T09:49:48.753Z,2.60
2023-04-26T09:52:19.018Z,3.00
2023-04-26T09:54:49.943Z,2.97
2023-04-26T09:57:22.433Z,3.20
2023-04-26T09:59:55.342Z,2.90
2023-04-26T10:02:28.130Z,3.50
2023-04-26T10:05:00.154Z,3.03
2023-04-26T10:07:31.559Z,2.53
2023-04-26T10:10:00.878Z,3.00
2023-04-26T10:12:30.887Z,3.30
2023-04-26T10:15:00.218Z,3.13
2023-04-26T10:17:32.477Z,2.97
2023-04-26T10:20:03.746Z,2.53
2023-04-26T10:22:37.489Z,2.70
2023-04-26T10:25:10.851Z,2.55
2023-04-26T10:27:51.283Z,2.67
2023-04-26T10:30:26.828Z,2.40
2023-04-26T10:33:19.211Z,2.63
2023-04-26T10:36:09.963Z,2.83
2023-04-26T10:38:41.158Z,6.38
2023-04-26T10:41:30.235Z,8.88
2023-04-26T10:44:01.769Z,10.30
2023-04-26T10:46:41.623Z,9.70
2023-04-26T10:49:20.045Z,9.30
2023-04-26T10:52:15.215Z,9.20
2023-04-26T10:54:57.788Z,8.20
2023-04-26T10:57:51.419Z,8.50
2023-04-26T11:00:27.935Z,7.60
2023-04-26T11:03:01.255Z,7.45
2023-04-26T11:05:57.813Z,7.00
2023-04-26T11:08:30.330Z,6.63
2023-04-26T11:11:06.996Z,6.05
2023-04-26T11:13:38.935Z,6.18
2023-04-26T11:16:09.606Z,6.10
2023-04-26T11:18:42.162Z,5.50
2023-04-26T11:21:12.911Z,5.13
2023-04-26T11:23:43.583Z,5.22
2023-04-26T11:26:12.779Z,5.15
2023-04-26T11:28:44.662Z,4.60
2023-04-26T11:31:14.699Z,4.70
2023-04-26T11:33:43.919Z,4.30
2023-04-26T11:36:14.411Z,4.43
2023-04-26T11:38:45.564Z,4.18
2023-04-26T11:41:14.938Z,4.00
2023-04-26T11:43:44.179Z,4.18
2023-04-26T11:46:13.378Z,3.92
2023-04-26T11:48:42.747Z,3.83
2023-04-26T11:51:13.014Z,3.65
2023-04-26T11:53:43.445Z,3.20
2023-04-26T11:56:18.218Z,3.42
2023-04-26T11:58:48.464Z,3.72
2023-04-26T12:01:24.569Z,2.92
2023-04-26T12:03:54.999Z,3.05
2023-04-26T12:06:33.036Z,3.17
2023-04-26T12:09:05.747Z,3.28
2023-04-26T12:11:36.804Z,3.25
2023-04-26T12:14:08.056Z,3.35
2023-04-26T12:16:38.216Z,3.50
2023-04-26T12:19:07.954Z,2.95
2023-04-26T12:21:43.424Z,3.13
2023-04-26T12:24:24.354Z,3.00
2023-04-26T12:26:55.150Z,3.10
2023-04-26T12:29:24.343Z,2.72
2023-04-26T12:31:53.711Z,2.80
2023-04-26T12:34:22.912Z,2.88
2023-04-26T12:36:52.217Z,2.80
2023-04-26T12:39:21.706Z,2.35
2023-04-26T12:41:51.069Z,2.53
2023-04-26T12:44:22.693Z,2.30
2023-04-26T12:46:52.692Z,2.55
2023-04-26T12:49:21.838Z,2.95
2023-04-26T12:51:51.016Z,2.35
2023-04-26T12:54:20.238Z,2.50
2023-04-26T12:56:49.681Z,2.30
2023-04-26T12:59:20.351Z,2.03
2023-04-26T13:01:49.628Z,2.25
2023-04-26T13:04:19.072Z,2.08
2023-04-26T13:06:48.637Z,2.35
2023-04-26T13:09:17.834Z,2.40
2023-04-26T13:11:47.224Z,2.20
2023-04-26T13:14:16.425Z,2.33
2023-04-26T13:16:47.039Z,1.98
2023-04-26T13:19:16.283Z,2.30
2023-04-26T13:21:45.610Z,2.15
2023-04-26T13:24:14.738Z,1.98
2023-04-26T13:26:43.996Z,2.10
2023-04-26T13:29:13.173Z,1.90
2023-04-26T13:31:43.396Z,2.10
2023-04-26T13:34:14.262Z,2.28
2023-04-26T13:36:43.534Z,1.77
2023-04-26T13:39:12.816Z,2.22
2023-04-26T13:41:42.032Z,2.20
2023-04-26T13:44:11.225Z,2.08
2023-04-26T13:46:40.581Z,1.98
2023-04-26T13:49:10.794Z,1.80
2023-04-26T13:51:41.927Z,1.75
2023-04-26T13:54:11.844Z,2.00
2023-04-26T13:56:41.342Z,1.58
2023-04-26T13:59:10.685Z,1.83
2023-04-26T14:01:40.894Z,1.92
2023-04-26T14:04:10.320Z,1.90
2023-04-26T14:06:41.127Z,1.80
2023-04-26T14:09:10.484Z,1.95
2023-04-26T14:11:39.720Z,2.22
2023-04-26T14:14:08.938Z,1.67
2023-04-26T14:16:38.249Z,2.10
2023-04-26T14:19:07.482Z,1.48
2023-04-26T14:21:36.916Z,1.98
2023-04-26T14:24:08.101Z,1.60
2023-04-26T14:26:37.573Z,1.70
2023-04-26T14:29:07.094Z,1.60
2023-04-26T14:31:36.461Z,1.45
2023-04-26T14:34:05.778Z,1.40
2023-04-26T14:36:34.999Z,1.35
2023-04-26T14:39:04.223Z,1.63
2023-04-26T14:41:34.808Z,1.60
2023-04-26T14:44:04.268Z,1.60
2023-04-26T14:46:33.538Z,1.52
2023-04-26T14:49:02.716Z,1.40
2023-04-26T14:51:32.218Z,1.67
2023-04-26T14:54:01.413Z,1.70
2023-04-26T14:56:35.657Z,1.27
2023-04-26T14:59:05.563Z,1.38
2023-04-26T15:01:34.857Z,1.65
2023-04-26T15:04:04.155Z,1.30
2023-04-26T15:06:34.336Z,1.45
2023-04-26T15:09:04.507Z,1.35
2023-04-26T15:11:35.381Z,1.48
2023-04-26T15:14:04.705Z,1.58
2023-04-26T15:16:34.066Z,1.65
2023-04-26T15:19:03.447Z,1.23
2023-04-26T15:21:34.682Z,1.40
2023-04-26T15:24:04.009Z,1.40
2023-04-26T15:26:34.751Z,1.55
2023-04-26T15:29:04.093Z,1.40
2023-04-26T15:31:33.994Z,1.40
2023-04-26T15:34:03.963Z,1.42
2023-04-26T15:36:33.360Z,1.20
2023-04-26T15:39:02.793Z,1.35
2023-04-26T15:41:32.226Z,1.40
2023-04-26T15:44:02.997Z,1.33
2023-04-26T15:46:32.247Z,1.20
2023-04-26T15:49:01.511Z,1.08
2023-04-26T15:51:31.350Z,1.15
2023-04-26T15:54:00.632Z,1.20
2023-04-26T15:56:29.966Z,1.30
2023-04-26T15:58:59.155Z,1.30
2023-04-26T16:01:30.124Z,1.20
2023-04-26T16:03:59.806Z,1.42
2023-04-26T16:06:29.383Z,1.40
2023-04-26T16:08:58.683Z,1.45
2023-04-26T16:11:28.455Z,1.40
2023-04-26T16:13:58.537Z,1.13
2023-04-26T16:16:29.883Z,1.30
2023-04-26T16:18:59.169Z,1.55
2023-04-26T16:21:29.350Z,1.30
2023-04-26T16:24:00.457Z,1.33
2023-04-26T16:26:30.042Z,1.15
2023-04-26T16:28:59.294Z,1.52
2023-04-26T16:31:30.173Z,1.08
2023-04-26T16:34:01.919Z,1.50
2023-04-26T16:36:32.276Z,1.35
2023-04-26T16:39:01.642Z,1.33
2023-04-26T16:41:31.469Z,1.05
2023-04-26T16:44:01.037Z,0.95
2023-04-26T16:46:32.544Z,1.27
2023-04-26T16:49:02.280Z,1.05
2023-04-26T16:51:32.567Z,1.00
2023-04-26T16:54:02.006Z,1.08
2023-04-26T16:56:32.411Z,1.00
2023-04-26T16:59:02.390Z,1.23
2023-04-26T17:01:33.644Z,1.23
2023-04-26T17:04:03.400Z,1.20
2023-04-26T17:06:33.288Z,1.00
2023-04-26T17:09:02.645Z,1.00
2023-04-26T17:11:32.066Z,1.00
2023-04-26T17:14:01.324Z,1.10
2023-04-26T17:16:30.795Z,0.90
2023-04-26T17:19:01.632Z,0.90
2023-04-26T17:21:30.976Z,1.33
2023-04-26T17:24:00.212Z,1.13
2023-04-26T17:26:29.575Z,1.20
2023-04-26T17:28:58.776Z,1.50
2023-04-26T17:31:28.534Z,1.30
2023-04-26T17:33:57.930Z,1.23
2023-04-26T17:36:28.802Z,1.23
2023-04-26T17:38:58.072Z,1.35
2023-04-26T17:41:27.361Z,1.23
2023-04-26T17:43:56.623Z,1.38
2023-04-26T17:46:26.151Z,1.10
2023-04-26T17:48:56.325Z,1.20
2023-04-26T17:51:25.894Z,1.10
2023-04-26T17:53:56.680Z,1.27
2023-04-26T17:56:27.656Z,1.35
2023-04-26T17:58:57.256Z,1.20
2023-04-26T18:01:26.742Z,1.02
2023-04-26T18:03:56.291Z,1.20
2023-04-26T18:06:26.815Z,1.20
2023-04-26T18:08:57.540Z,1.35
2023-04-26T18:11:27.250Z,1.08
2023-04-26T18:13:56.533Z,0.88
2023-04-26T18:16:27.404Z,1.10
2023-04-26T18:18:56.832Z,1.15
2023-04-26T18:21:26.679Z,1.10
2023-04-26T18:23:57.432Z,0.90
2023-04-26T18:26:27.272Z,0.98
2023-04-26T18:28:56.580Z,0.90
2023-04-26T18:31:26.160Z,1.17
2023-04-26T18:33:55.669Z,0.95
2023-04-26T18:36:24.986Z,0.98
2023-04-26T18:38:55.001Z,1.20
2023-04-26T18:41:26.068Z,0.80
2023-04-26T18:43:55.721Z,0.90
2023-04-26T18:46:24.997Z,0.93
2023-04-26T18:48:54.343Z,1.05
2023-04-26T18:51:24.141Z,1.10
2023-04-26T18:53:54.190Z,1.00
2023-04-26T18:56:24.205Z,0.90
2023-04-26T18:58:55.637Z,1.00
2023-04-26T19:01:25.645Z,0.85
2023-04-26T19:03:55.776Z,1.13
2023-04-26T19:06:25.691Z,0.88
2023-04-26T19:08:55.515Z,1.30
2023-04-26T19:11:24.967Z,1.08
2023-04-26T19:13:55.865Z,0.90
2023-04-26T19:16:25.237Z,0.82
2023-04-26T19:18:54.601Z,1.00
2023-04-26T19:21:24.109Z,0.93
2023-04-26T19:23:53.353Z,0.90
2023-04-26T19:26:22.610Z,1.13
2023-04-26T19:28:52.186Z,1.00
2023-04-26T19:31:23.186Z,1.02
2023-04-26T19:33:52.844Z,1.00
2023-04-26T19:36:22.240Z,1.10
2023-04-26T19:38:51.566Z,1.00
2023-04-26T19:41:22.461Z,0.77
2023-04-26T19:43:51.977Z,0.90
2023-04-26T19:46:22.822Z,0.98
2023-04-26T19:48:52.411Z,1.00
2023-04-26T19:51:21.739Z,1.00
2023-04-26T19:53:51.042Z,0.80
2023-04-26T19:56:20.175Z,0.80
2023-04-26T19:58:49.349Z,0.82
2023-04-26T20:01:18.632Z,0.52
2023-04-26T20:03:49.461Z,0.93
2023-04-26T20:06:18.947Z,0.93
2023-04-26T20:08:48.205Z,1.20
2023-04-26T20:11:17.752Z,0.52
2023-04-26T20:13:47.439Z,0.90
2023-04-26T20:16:16.672Z,0.73
2023-04-26T20:18:45.914Z,0.85
2023-04-26T20:21:16.910Z,0.90
2023-04-26T20:23:46.130Z,0.75
2023-04-26T20:26:15.261Z,0.70
2023-04-26T20:28:46.114Z,0.90
2023-04-26T20:31:15.327Z,0.55
2023-04-26T20:33:44.587Z,0.60
2023-04-26T20:36:14.239Z,0.70
2023-04-26T20:38:44.836Z,0.70
2023-04-26T20:41:14.138Z,0.60
2023-04-26T20:43:43.370Z,0.68
2023-04-26T20:46:12.601Z,0.60
2023-04-26T20:48:41.838Z,0.50
2023-04-26T20:51:11.003Z,0.50
2023-04-26T20:53:40.154Z,0.70
2023-04-26T20:56:10.829Z,0.70
2023-04-26T20:58:41.340Z,0.82
2023-04-26T21:01:11.557Z,0.88
2023-04-26T21:03:40.939Z,0.70
2023-04-26T21:06:10.350Z,0.50
2023-04-26T21:08:40.723Z,0.60
2023-04-26T21:11:11.553Z,0.50
2023-04-26T21:13:40.756Z,0.70
2023-04-26T21:16:09.875Z,0.60
2023-04-26T21:18:39.099Z,0.60
2023-04-26T21:21:09.131Z,0.60
2023-04-26T21:23:38.355Z,0.60
2023-04-26T21:26:07.588Z,0.60
2023-04-26T21:28:38.172Z,0.60
2023-04-26T21:31:08.914Z,0.52
2023-04-26T21:33:38.146Z,0.68
2023-04-26T21:36:07.965Z,0.52
2023-04-26T21:38:37.131Z,0.40
2023-04-26T21:41:06.572Z,0.60
2023-04-26T21:43:35.880Z,0.50
2023-04-26T21:46:06.766Z,0.80
2023-04-26T21:48:36.071Z,0.55
2023-04-26T21:51:05.464Z,0.55
2023-04-26T21:53:34.597Z,0.47
2023-04-26T21:56:05.087Z,0.70
2023-04-26T21:58:34.334Z,0.60
2023-04-26T22:01:12.380Z,0.70
2023-04-26T22:03:41.933Z,0.52
2023-04-26T22:06:11.647Z,0.57
2023-04-26T22:08:41.449Z,0.60
2023-04-26T22:11:10.849Z,0.55
2023-04-26T22:13:40.184Z,0.52
2023-04-26T22:16:10.938Z,0.57
2023-04-26T22:18:40.190Z,0.70
2023-04-26T22:21:09.514Z,0.50
2023-04-26T22:23:38.692Z,0.60
2023-04-26T22:26:07.876Z,0.60
2023-04-26T22:28:37.032Z,0.40
2023-04-26T22:31:06.633Z,0.52
2023-04-26T22:33:37.265Z,0.60
2023-04-26T22:36:07.178Z,0.50
2023-04-26T22:38:36.481Z,0.50
2023-04-26T22:41:07.432Z,0.47
2023-04-26T22:43:37.206Z,0.50
2023-04-26T22:46:06.553Z,0.60
2023-04-26T22:48:37.124Z,0.43
2023-04-26T22:51:06.819Z,0.93
2023-04-26T22:53:36.095Z,0.50
2023-04-26T22:56:06.160Z,0.60
2023-04-26T22:58:35.389Z,0.68
2023-04-26T23:01:04.757Z,0.60
2023-04-26T23:03:38.630Z,0.75
2023-04-26T23:06:08.539Z,0.80
2023-04-26T23:08:37.728Z,0.47
2023-04-26T23:11:09.203Z,0.38
2023-04-26T23:13:38.411Z,0.57
2023-04-26T23:16:08.720Z,0.52
2023-04-26T23:18:39.413Z,0.60
2023-04-26T23:21:08.583Z,0.60
2023-04-26T23:23:37.733Z,0.50
2023-04-26T23:26:08.513Z,0.70
2023-04-26T23:28:37.945Z,0.63
2023-04-26T23:31:07.466Z,0.60
2023-04-26T23:33:36.622Z,0.68
2023-04-26T23:36:08.271Z,0.57
2023-04-26T23:38:37.567Z,0.60
2023-04-26T23:41:06.900Z,0.80
2023-04-26T23:43:36.066Z,0.52
2023-04-26T23:46:05.596Z,0.57
2023-04-26T23:48:34.876Z,0.50
2023-04-26T23:51:04.179Z,0.70
2023-04-26T23:53:34.838Z,0.60
2023-04-26T23:56:04.060Z,0.55
2023-04-26T23:58:33.241Z,0.60
